sensor_id;sensor_type;location;lat;lon;timestamp;temperature;humidity
51619;DHT22;38518;53.164;5.430;2024-03-06T00:01:54;4.90;99.90
51619;DHT22;38518;53.164;5.430;2024-03-06T00:04:19;4.90;99.90
51619;DHT22;38518;53.164;5.430;2024-03-06T00:06:45;4.90;99.90
51619;DHT22;38518;53.164;5.430;2024-03-06T00:09:11;5.40;99.90
51619;DHT22;38518;53.164;5.430;2024-03-06T00:11:37;5.00;99.90
51619;DHT22;38518;53.164;5.430;2024-03-06T00:14:03;5.50;99.90
51619;DHT22;38518;53.164;5.430;2024-03-06T00:16:31;5.10;99.90
51619;DHT22;38518;53.164;5.430;2024-03-06T00:18:57;4.80;99.90
51619;DHT22;38518;53.164;5.430;2024-03-06T00:21:22;5.00;99.90
51619;DHT22;38518;53.164;5.430;2024-03-06T00:23:48;4.90;99.90
51619;DHT22;38518;53.164;5.430;2024-03-06T00:26:14;4.80;99.90
51619;DHT22;38518;53.164;5.430;2024-03-06T00:28:39;5.60;99.90
51619;DHT22;38518;53.164;5.430;2024-03-06T00:31:05;5.50;99.90
51619;DHT22;38518;53.164;5.430;2024-03-06T00:33:31;5.10;99.90
51619;DHT22;38518;53.164;5.430;2024-03-06T00:35:57;4.80;99.90
51619;DHT22;38518;53.164;5.430;2024-03-06T00:38:23;5.20;99.90
51619;DHT22;38518;53.164;5.430;2024-03-06T00:40:49;5.50;99.90
51619;DHT22;38518;53.164;5.430;2024-03-06T00:43:15;4.80;99.90
51619;DHT22;38518;53.164;5.430;2024-03-06T00:45:40;4.80;99.90
51619;DHT22;38518;53.164;5.430;2024-03-06T00:48:07;4.80;99.90
51619;DHT22;38518;53.164;5.430;2024-03-06T00:50:33;4.80;99.90
51619;DHT22;38518;53.164;5.430;2024-03-06T00:52:59;4.80;99.90
51619;DHT22;38518;53.164;5.430;2024-03-06T00:55:25;5.50;99.90
51619;DHT22;38518;53.164;5.430;2024-03-06T00:57:50;4.80;99.90
51619;DHT22;38518;53.164;5.430;2024-03-06T01:00:17;6.00;99.90
51619;DHT22;38518;53.164;5.430;2024-03-06T01:02:43;4.70;99.90
51619;DHT22;38518;53.164;5.430;2024-03-06T01:05:08;4.70;99.90
51619;DHT22;38518;53.164;5.430;2024-03-06T01:07:37;4.70;99.90
51619;DHT22;38518;53.164;5.430;2024-03-06T01:10:04;4.80;99.90
51619;DHT22;38518;53.164;5.430;2024-03-06T01:12:35;4.60;99.90
51619;DHT22;38518;53.164;5.430;2024-03-06T01:15:01;4.60;99.90
51619;DHT22;38518;53.164;5.430;2024-03-06T01:17:27;4.60;99.90
51619;DHT22;38518;53.164;5.430;2024-03-06T01:19:52;4.70;99.90
51619;DHT22;38518;53.164;5.430;2024-03-06T01:22:18;4.60;99.90
51619;DHT22;38518;53.164;5.430;2024-03-06T01:24:44;4.60;99.90
51619;DHT22;38518;53.164;5.430;2024-03-06T01:27:10;5.50;99.90
51619;DHT22;38518;53.164;5.430;2024-03-06T01:29:36;4.80;99.90
51619;DHT22;38518;53.164;5.430;2024-03-06T01:32:02;6.00;99.90
51619;DHT22;38518;53.164;5.430;2024-03-06T01:34:28;4.60;99.90
51619;DHT22;38518;53.164;5.430;2024-03-06T01:36:53;5.40;99.90
51619;DHT22;38518;53.164;5.430;2024-03-06T01:39:19;5.50;99.90
51619;DHT22;38518;53.164;5.430;2024-03-06T01:41:50;5.20;99.90
51619;DHT22;38518;53.164;5.430;2024-03-06T01:44:17;4.60;99.90
51619;DHT22;38518;53.164;5.430;2024-03-06T01:46:44;5.70;99.90
51619;DHT22;38518;53.164;5.430;2024-03-06T01:49:11;5.60;99.90
51619;DHT22;38518;53.164;5.430;2024-03-06T01:51:40;5.50;99.90
51619;DHT22;38518;53.164;5.430;2024-03-06T01:54:06;4.60;99.90
51619;DHT22;38518;53.164;5.430;2024-03-06T01:56:37;4.50;99.90
51619;DHT22;38518;53.164;5.430;2024-03-06T01:59:04;4.50;99.90
51619;DHT22;38518;53.164;5.430;2024-03-06T02:01:31;4.50;99.90
51619;DHT22;38518;53.164;5.430;2024-03-06T02:03:57;4.90;99.90
51619;DHT22;38518;53.164;5.430;2024-03-06T02:06:23;4.50;99.90
51619;DHT22;38518;53.164;5.430;2024-03-06T02:08:50;4.50;99.90
51619;DHT22;38518;53.164;5.430;2024-03-06T02:11:16;4.50;99.90
51619;DHT22;38518;53.164;5.430;2024-03-06T02:13:43;4.50;99.90
51619;DHT22;38518;53.164;5.430;2024-03-06T02:16:10;4.50;99.90
51619;DHT22;38518;53.164;5.430;2024-03-06T02:18:36;5.40;99.90
51619;DHT22;38518;53.164;5.430;2024-03-06T02:21:02;5.00;99.90
51619;DHT22;38518;53.164;5.430;2024-03-06T02:23:30;4.60;99.90
51619;DHT22;38518;53.164;5.430;2024-03-06T02:25:56;4.50;99.90
51619;DHT22;38518;53.164;5.430;2024-03-06T02:28:22;4.50;99.90
51619;DHT22;38518;53.164;5.430;2024-03-06T02:30:51;5.50;99.90
51619;DHT22;38518;53.164;5.430;2024-03-06T02:33:17;4.60;99.90
51619;DHT22;38518;53.164;5.430;2024-03-06T02:35:43;4.60;99.90
51619;DHT22;38518;53.164;5.430;2024-03-06T02:38:10;4.50;99.90
51619;DHT22;38518;53.164;5.430;2024-03-06T02:40:36;4.50;99.90
51619;DHT22;38518;53.164;5.430;2024-03-06T02:43:02;4.50;99.90
51619;DHT22;38518;53.164;5.430;2024-03-06T02:45:28;4.50;99.90
51619;DHT22;38518;53.164;5.430;2024-03-06T02:47:53;5.90;99.90
51619;DHT22;38518;53.164;5.430;2024-03-06T02:50:19;5.60;99.90
51619;DHT22;38518;53.164;5.430;2024-03-06T02:52:46;4.90;99.90
51619;DHT22;38518;53.164;5.430;2024-03-06T02:55:12;4.50;99.90
51619;DHT22;38518;53.164;5.430;2024-03-06T02:57:38;4.40;99.90
51619;DHT22;38518;53.164;5.430;2024-03-06T03:00:04;4.40;99.90
51619;DHT22;38518;53.164;5.430;2024-03-06T03:02:30;4.40;99.90
51619;DHT22;38518;53.164;5.430;2024-03-06T03:04:56;4.40;99.90
51619;DHT22;38518;53.164;5.430;2024-03-06T03:07:23;4.40;99.90
51619;DHT22;38518;53.164;5.430;2024-03-06T03:09:49;4.40;99.90
51619;DHT22;38518;53.164;5.430;2024-03-06T03:12:14;4.40;99.90
51619;DHT22;38518;53.164;5.430;2024-03-06T03:14:40;5.90;99.90
51619;DHT22;38518;53.164;5.430;2024-03-06T03:19:33;4.30;99.90
51619;DHT22;38518;53.164;5.430;2024-03-06T03:21:59;4.30;99.90
51619;DHT22;38518;53.164;5.430;2024-03-06T03:24:24;4.40;99.90
51619;DHT22;38518;53.164;5.430;2024-03-06T03:26:53;4.90;99.90
51619;DHT22;38518;53.164;5.430;2024-03-06T03:29:19;4.30;99.90
51619;DHT22;38518;53.164;5.430;2024-03-06T03:31:46;5.20;99.90
51619;DHT22;38518;53.164;5.430;2024-03-06T03:34:12;5.50;99.90
51619;DHT22;38518;53.164;5.430;2024-03-06T03:36:42;4.30;99.90
51619;DHT22;38518;53.164;5.430;2024-03-06T03:39:09;4.30;99.90
51619;DHT22;38518;53.164;5.430;2024-03-06T03:41:48;4.80;99.90
51619;DHT22;38518;53.164;5.430;2024-03-06T03:44:18;4.30;99.90
51619;DHT22;38518;53.164;5.430;2024-03-06T03:46:49;5.80;99.90
51619;DHT22;38518;53.164;5.430;2024-03-06T03:49:15;5.10;99.90
51619;DHT22;38518;53.164;5.430;2024-03-06T03:51:41;4.20;99.90
51619;DHT22;38518;53.164;5.430;2024-03-06T03:54:07;4.20;99.90
51619;DHT22;38518;53.164;5.430;2024-03-06T03:56:33;4.30;99.90
51619;DHT22;38518;53.164;5.430;2024-03-06T03:58:59;5.00;99.90
51619;DHT22;38518;53.164;5.430;2024-03-06T04:01:25;4.60;99.90
51619;DHT22;38518;53.164;5.430;2024-03-06T04:03:51;4.30;99.90
51619;DHT22;38518;53.164;5.430;2024-03-06T04:06:17;4.30;99.90
51619;DHT22;38518;53.164;5.430;2024-03-06T04:08:43;4.20;99.90
51619;DHT22;38518;53.164;5.430;2024-03-06T04:11:09;4.20;99.90
51619;DHT22;38518;53.164;5.430;2024-03-06T04:13:36;4.40;99.90
51619;DHT22;38518;53.164;5.430;2024-03-06T04:16:03;4.10;99.90
51619;DHT22;38518;53.164;5.430;2024-03-06T04:18:29;4.10;99.90
51619;DHT22;38518;53.164;5.430;2024-03-06T04:21:05;4.10;99.90
51619;DHT22;38518;53.164;5.430;2024-03-06T04:23:31;4.10;99.90
51619;DHT22;38518;53.164;5.430;2024-03-06T04:25:56;4.10;99.90
51619;DHT22;38518;53.164;5.430;2024-03-06T04:28:22;4.10;99.90
51619;DHT22;38518;53.164;5.430;2024-03-06T04:30:48;5.10;99.90
51619;DHT22;38518;53.164;5.430;2024-03-06T04:33:14;4.10;99.90
51619;DHT22;38518;53.164;5.430;2024-03-06T04:35:41;4.70;99.90
51619;DHT22;38518;53.164;5.430;2024-03-06T04:38:06;4.10;99.90
51619;DHT22;38518;53.164;5.430;2024-03-06T04:40:33;4.10;99.90
51619;DHT22;38518;53.164;5.430;2024-03-06T04:43:02;4.10;99.90
51619;DHT22;38518;53.164;5.430;2024-03-06T04:45:28;4.20;99.90
51619;DHT22;38518;53.164;5.430;2024-03-06T04:47:55;4.10;99.90
51619;DHT22;38518;53.164;5.430;2024-03-06T04:50:21;4.20;99.90
51619;DHT22;38518;53.164;5.430;2024-03-06T04:52:47;4.10;99.90
51619;DHT22;38518;53.164;5.430;2024-03-06T04:55:12;4.20;99.90
51619;DHT22;38518;53.164;5.430;2024-03-06T04:57:43;5.00;99.90
51619;DHT22;38518;53.164;5.430;2024-03-06T05:00:10;4.10;99.90
51619;DHT22;38518;53.164;5.430;2024-03-06T05:02:36;4.20;99.90
51619;DHT22;38518;53.164;5.430;2024-03-06T05:05:03;4.10;99.90
51619;DHT22;38518;53.164;5.430;2024-03-06T05:07:29;3.00;99.90
51619;DHT22;38518;53.164;5.430;2024-03-06T05:09:56;4.20;99.90
51619;DHT22;38518;53.164;5.430;2024-03-06T05:12:23;4.10;99.90
51619;DHT22;38518;53.164;5.430;2024-03-06T05:14:50;4.40;99.90
51619;DHT22;38518;53.164;5.430;2024-03-06T05:17:15;4.20;99.90
51619;DHT22;38518;53.164;5.430;2024-03-06T05:19:41;4.30;99.90
51619;DHT22;38518;53.164;5.430;2024-03-06T05:22:07;4.20;99.90
51619;DHT22;38518;53.164;5.430;2024-03-06T05:24:33;4.20;99.90
51619;DHT22;38518;53.164;5.430;2024-03-06T05:26:59;4.30;99.90
51619;DHT22;38518;53.164;5.430;2024-03-06T05:29:24;4.50;99.90
51619;DHT22;38518;53.164;5.430;2024-03-06T05:31:50;4.20;99.90
51619;DHT22;38518;53.164;5.430;2024-03-06T05:34:16;5.00;99.90
51619;DHT22;38518;53.164;5.430;2024-03-06T05:36:41;4.30;99.90
51619;DHT22;38518;53.164;5.430;2024-03-06T05:39:07;4.30;99.90
51619;DHT22;38518;53.164;5.430;2024-03-06T05:41:38;4.30;99.90
51619;DHT22;38518;53.164;5.430;2024-03-06T05:44:05;5.00;99.90
51619;DHT22;38518;53.164;5.430;2024-03-06T05:46:31;4.30;99.90
51619;DHT22;38518;53.164;5.430;2024-03-06T05:48:57;4.30;99.90
51619;DHT22;38518;53.164;5.430;2024-03-06T05:51:23;4.30;99.90
51619;DHT22;38518;53.164;5.430;2024-03-06T05:53:49;4.30;99.90
51619;DHT22;38518;53.164;5.430;2024-03-06T05:56:15;5.40;99.90
51619;DHT22;38518;53.164;5.430;2024-03-06T05:58:42;5.20;99.90
51619;DHT22;38518;53.164;5.430;2024-03-06T06:01:11;4.50;99.90
51619;DHT22;38518;53.164;5.430;2024-03-06T06:03:37;4.30;99.90
51619;DHT22;38518;53.164;5.430;2024-03-06T06:06:04;5.60;99.90
51619;DHT22;38518;53.164;5.430;2024-03-06T06:08:30;4.30;99.90
51619;DHT22;38518;53.164;5.430;2024-03-06T06:10:56;4.30;99.90
51619;DHT22;38518;53.164;5.430;2024-03-06T06:13:21;4.30;99.90
51619;DHT22;38518;53.164;5.430;2024-03-06T06:15:47;4.30;99.90
51619;DHT22;38518;53.164;5.430;2024-03-06T06:18:15;4.40;99.90
51619;DHT22;38518;53.164;5.430;2024-03-06T06:20:41;4.40;99.90
51619;DHT22;38518;53.164;5.430;2024-03-06T06:23:08;4.40;99.90
51619;DHT22;38518;53.164;5.430;2024-03-06T06:25:34;5.30;99.90
51619;DHT22;38518;53.164;5.430;2024-03-06T06:28:00;4.80;99.90
51619;DHT22;38518;53.164;5.430;2024-03-06T06:30:26;4.80;99.90
51619;DHT22;38518;53.164;5.430;2024-03-06T06:32:52;4.40;99.90
51619;DHT22;38518;53.164;5.430;2024-03-06T06:35:18;4.50;99.90
51619;DHT22;38518;53.164;5.430;2024-03-06T06:37:44;4.40;99.90
51619;DHT22;38518;53.164;5.430;2024-03-06T06:40:10;4.40;99.90
51619;DHT22;38518;53.164;5.430;2024-03-06T06:42:37;4.40;99.90
51619;DHT22;38518;53.164;5.430;2024-03-06T06:45:06;4.50;99.90
51619;DHT22;38518;53.164;5.430;2024-03-06T06:47:32;4.40;99.90
51619;DHT22;38518;53.164;5.430;2024-03-06T06:49:58;4.40;99.90
51619;DHT22;38518;53.164;5.430;2024-03-06T06:52:24;4.40;99.90
51619;DHT22;38518;53.164;5.430;2024-03-06T06:54:56;5.30;99.90
51619;DHT22;38518;53.164;5.430;2024-03-06T06:57:21;4.40;99.90
51619;DHT22;38518;53.164;5.430;2024-03-06T06:59:47;4.40;99.90
51619;DHT22;38518;53.164;5.430;2024-03-06T07:02:16;5.20;99.90
51619;DHT22;38518;53.164;5.430;2024-03-06T07:04:41;4.40;99.90
51619;DHT22;38518;53.164;5.430;2024-03-06T07:07:10;4.40;99.90
51619;DHT22;38518;53.164;5.430;2024-03-06T07:09:36;4.40;99.90
51619;DHT22;38518;53.164;5.430;2024-03-06T07:12:01;4.50;99.90
51619;DHT22;38518;53.164;5.430;2024-03-06T07:14:28;5.70;99.90
51619;DHT22;38518;53.164;5.430;2024-03-06T07:16:54;4.50;99.90
51619;DHT22;38518;53.164;5.430;2024-03-06T07:19:20;5.40;99.90
51619;DHT22;38518;53.164;5.430;2024-03-06T07:21:46;4.50;99.90
51619;DHT22;38518;53.164;5.430;2024-03-06T07:24:11;3.90;99.90
51619;DHT22;38518;53.164;5.430;2024-03-06T07:26:37;4.50;99.90
51619;DHT22;38518;53.164;5.430;2024-03-06T07:29:03;4.50;99.90
51619;DHT22;38518;53.164;5.430;2024-03-06T07:31:29;4.50;99.90
51619;DHT22;38518;53.164;5.430;2024-03-06T07:33:55;5.30;99.90
51619;DHT22;38518;53.164;5.430;2024-03-06T07:36:21;4.50;99.90
51619;DHT22;38518;53.164;5.430;2024-03-06T07:38:47;4.50;99.90
51619;DHT22;38518;53.164;5.430;2024-03-06T07:41:13;4.60;99.90
51619;DHT22;38518;53.164;5.430;2024-03-06T07:43:39;4.60;99.90
51619;DHT22;38518;53.164;5.430;2024-03-06T07:46:05;4.60;99.90
51619;DHT22;38518;53.164;5.430;2024-03-06T07:48:37;4.60;99.90
51619;DHT22;38518;53.164;5.430;2024-03-06T07:51:06;4.60;99.90
51619;DHT22;38518;53.164;5.430;2024-03-06T07:53:32;4.60;99.90
51619;DHT22;38518;53.164;5.430;2024-03-06T07:55:58;4.90;99.90
51619;DHT22;38518;53.164;5.430;2024-03-06T07:58:24;5.60;99.90
51619;DHT22;38518;53.164;5.430;2024-03-06T08:00:50;4.60;99.90
51619;DHT22;38518;53.164;5.430;2024-03-06T08:03:18;5.40;99.90
51619;DHT22;38518;53.164;5.430;2024-03-06T08:05:44;4.60;99.90
51619;DHT22;38518;53.164;5.430;2024-03-06T08:08:09;4.60;99.90
51619;DHT22;38518;53.164;5.430;2024-03-06T08:10:35;4.60;99.90
51619;DHT22;38518;53.164;5.430;2024-03-06T08:13:01;4.80;99.90
51619;DHT22;38518;53.164;5.430;2024-03-06T08:15:26;4.70;99.90
51619;DHT22;38518;53.164;5.430;2024-03-06T08:17:52;4.70;99.90
51619;DHT22;38518;53.164;5.430;2024-03-06T08:20:18;4.70;99.90
51619;DHT22;38518;53.164;5.430;2024-03-06T08:22:44;4.70;99.90
51619;DHT22;38518;53.164;5.430;2024-03-06T08:25:11;4.70;99.90
51619;DHT22;38518;53.164;5.430;2024-03-06T08:27:39;6.00;99.90
51619;DHT22;38518;53.164;5.430;2024-03-06T08:30:06;4.00;99.90
51619;DHT22;38518;53.164;5.430;2024-03-06T08:32:32;4.70;99.90
51619;DHT22;38518;53.164;5.430;2024-03-06T08:35:04;4.80;99.90
51619;DHT22;38518;53.164;5.430;2024-03-06T08:37:34;4.90;99.90
51619;DHT22;38518;53.164;5.430;2024-03-06T08:40:00;5.40;99.90
51619;DHT22;38518;53.164;5.430;2024-03-06T08:42:27;4.90;99.90
51619;DHT22;38518;53.164;5.430;2024-03-06T08:44:53;5.50;99.90
51619;DHT22;38518;53.164;5.430;2024-03-06T08:47:19;4.90;99.90
51619;DHT22;38518;53.164;5.430;2024-03-06T08:49:45;4.90;99.90
51619;DHT22;38518;53.164;5.430;2024-03-06T08:52:11;4.90;99.90
51619;DHT22;38518;53.164;5.430;2024-03-06T08:54:37;4.90;99.90
51619;DHT22;38518;53.164;5.430;2024-03-06T08:57:03;4.90;99.90
51619;DHT22;38518;53.164;5.430;2024-03-06T08:59:30;4.90;99.90
51619;DHT22;38518;53.164;5.430;2024-03-06T09:01:55;5.00;99.90
51619;DHT22;38518;53.164;5.430;2024-03-06T09:04:22;6.10;99.90
51619;DHT22;38518;53.164;5.430;2024-03-06T09:06:50;3.70;99.90
51619;DHT22;38518;53.164;5.430;2024-03-06T09:09:16;5.00;99.90
51619;DHT22;38518;53.164;5.430;2024-03-06T09:11:42;5.80;99.90
51619;DHT22;38518;53.164;5.430;2024-03-06T09:14:08;5.20;99.90
51619;DHT22;38518;53.164;5.430;2024-03-06T09:16:36;5.70;99.90
51619;DHT22;38518;53.164;5.430;2024-03-06T09:19:02;5.10;99.90
51619;DHT22;38518;53.164;5.430;2024-03-06T09:21:28;5.00;99.90
51619;DHT22;38518;53.164;5.430;2024-03-06T09:23:54;5.50;99.90
51619;DHT22;38518;53.164;5.430;2024-03-06T09:26:20;5.00;99.90
51619;DHT22;38518;53.164;5.430;2024-03-06T09:28:48;5.00;99.90
51619;DHT22;38518;53.164;5.430;2024-03-06T09:31:15;5.70;99.90
51619;DHT22;38518;53.164;5.430;2024-03-06T09:33:43;5.10;99.90
51619;DHT22;38518;53.164;5.430;2024-03-06T09:36:11;5.10;99.90
51619;DHT22;38518;53.164;5.430;2024-03-06T09:38:41;5.10;99.90
51619;DHT22;38518;53.164;5.430;2024-03-06T09:41:08;5.00;99.90
51619;DHT22;38518;53.164;5.430;2024-03-06T09:43:34;5.10;99.90
51619;DHT22;38518;53.164;5.430;2024-03-06T09:46:00;5.80;99.90
51619;DHT22;38518;53.164;5.430;2024-03-06T09:48:28;5.50;99.90
51619;DHT22;38518;53.164;5.430;2024-03-06T09:51:00;5.10;99.90
51619;DHT22;38518;53.164;5.430;2024-03-06T09:53:26;5.10;99.90
51619;DHT22;38518;53.164;5.430;2024-03-06T09:55:52;5.10;99.90
51619;DHT22;38518;53.164;5.430;2024-03-06T09:58:20;5.10;99.90
51619;DHT22;38518;53.164;5.430;2024-03-06T10:00:48;5.20;99.90
51619;DHT22;38518;53.164;5.430;2024-03-06T10:03:15;5.20;99.90
51619;DHT22;38518;53.164;5.430;2024-03-06T10:05:41;6.00;99.90
51619;DHT22;38518;53.164;5.430;2024-03-06T10:08:09;5.40;99.90
51619;DHT22;38518;53.164;5.430;2024-03-06T10:10:35;5.60;99.90
51619;DHT22;38518;53.164;5.430;2024-03-06T10:13:02;5.30;99.90
51619;DHT22;38518;53.164;5.430;2024-03-06T10:15:28;5.30;99.90
51619;DHT22;38518;53.164;5.430;2024-03-06T10:18:14;5.10;99.90
51619;DHT22;38518;53.164;5.430;2024-03-06T10:20:41;5.30;99.90
51619;DHT22;38518;53.164;5.430;2024-03-06T10:23:10;5.30;99.90
51619;DHT22;38518;53.164;5.430;2024-03-06T10:25:37;5.40;99.90
51619;DHT22;38518;53.164;5.430;2024-03-06T10:28:11;6.20;99.90
51619;DHT22;38518;53.164;5.430;2024-03-06T10:30:39;6.80;99.90
51619;DHT22;38518;53.164;5.430;2024-03-06T10:33:08;5.50;99.90
51619;DHT22;38518;53.164;5.430;2024-03-06T10:35:35;5.50;99.90
51619;DHT22;38518;53.164;5.430;2024-03-06T10:38:05;5.70;99.90
51619;DHT22;38518;53.164;5.430;2024-03-06T10:40:33;5.70;99.90
51619;DHT22;38518;53.164;5.430;2024-03-06T10:43:00;6.70;99.90
51619;DHT22;38518;53.164;5.430;2024-03-06T10:45:41;5.70;99.90
51619;DHT22;38518;53.164;5.430;2024-03-06T10:48:13;6.80;99.90
51619;DHT22;38518;53.164;5.430;2024-03-06T10:50:40;5.80;99.90
51619;DHT22;38518;53.164;5.430;2024-03-06T10:53:11;5.80;99.90
51619;DHT22;38518;53.164;5.430;2024-03-06T10:55:37;6.40;99.90
51619;DHT22;38518;53.164;5.430;2024-03-06T10:58:07;5.90;99.90
51619;DHT22;38518;53.164;5.430;2024-03-06T11:00:41;6.00;99.90
51619;DHT22;38518;53.164;5.430;2024-03-06T11:03:08;6.00;99.90
51619;DHT22;38518;53.164;5.430;2024-03-06T11:05:38;6.10;99.90
51619;DHT22;38518;53.164;5.430;2024-03-06T11:08:11;6.20;99.90
51619;DHT22;38518;53.164;5.430;2024-03-06T11:10:41;6.40;99.90
51619;DHT22;38518;53.164;5.430;2024-03-06T11:15:46;6.70;99.90
51619;DHT22;38518;53.164;5.430;2024-03-06T11:26:35;6.50;99.90
51619;DHT22;38518;53.164;5.430;2024-03-06T11:29:01;6.50;99.90
51619;DHT22;38518;53.164;5.430;2024-03-06T11:31:28;6.50;99.90
51619;DHT22;38518;53.164;5.430;2024-03-06T11:33:54;6.50;99.90
51619;DHT22;38518;53.164;5.430;2024-03-06T11:36:22;6.60;99.90
51619;DHT22;38518;53.164;5.430;2024-03-06T11:41:22;5.70;99.90
51619;DHT22;38518;53.164;5.430;2024-03-06T11:43:51;7.60;99.90
51619;DHT22;38518;53.164;5.430;2024-03-06T11:46:19;6.90;99.90
51619;DHT22;38518;53.164;5.430;2024-03-06T11:48:56;6.90;99.90
51619;DHT22;38518;53.164;5.430;2024-03-06T11:51:23;5.70;99.90
51619;DHT22;38518;53.164;5.430;2024-03-06T11:53:50;7.00;99.90
51619;DHT22;38518;53.164;5.430;2024-03-06T11:56:20;7.10;99.90
51619;DHT22;38518;53.164;5.430;2024-03-06T11:58:46;7.10;99.90
51619;DHT22;38518;53.164;5.430;2024-03-06T12:01:14;7.20;99.90
51619;DHT22;38518;53.164;5.430;2024-03-06T12:03:41;7.30;99.90
51619;DHT22;38518;53.164;5.430;2024-03-06T12:06:07;7.30;99.90
51619;DHT22;38518;53.164;5.430;2024-03-06T12:08:33;7.40;99.90
51619;DHT22;38518;53.164;5.430;2024-03-06T12:11:04;7.50;99.90
51619;DHT22;38518;53.164;5.430;2024-03-06T12:13:31;7.60;99.90
51619;DHT22;38518;53.164;5.430;2024-03-06T12:15:56;7.60;99.90
51619;DHT22;38518;53.164;5.430;2024-03-06T12:18:24;7.70;99.90
51619;DHT22;38518;53.164;5.430;2024-03-06T12:20:50;7.70;99.90
51619;DHT22;38518;53.164;5.430;2024-03-06T12:23:21;7.70;99.90
51619;DHT22;38518;53.164;5.430;2024-03-06T12:25:47;7.80;99.90
51619;DHT22;38518;53.164;5.430;2024-03-06T12:28:13;7.60;99.60
51619;DHT22;38518;53.164;5.430;2024-03-06T12:30:41;7.90;99.90
51619;DHT22;38518;53.164;5.430;2024-03-06T12:33:08;8.00;99.90
51619;DHT22;38518;53.164;5.430;2024-03-06T12:35:36;8.70;99.90
51619;DHT22;38518;53.164;5.430;2024-03-06T12:38:12;8.00;96.10
51619;DHT22;38518;53.164;5.430;2024-03-06T12:40:39;8.00;96.00
51619;DHT22;38518;53.164;5.430;2024-03-06T12:43:05;8.00;92.80
51619;DHT22;38518;53.164;5.430;2024-03-06T12:45:31;8.10;94.30
51619;DHT22;38518;53.164;5.430;2024-03-06T12:47:57;8.20;92.10
51619;DHT22;38518;53.164;5.430;2024-03-06T12:50:23;8.30;94.30
51619;DHT22;38518;53.164;5.430;2024-03-06T12:52:49;8.40;94.20
51619;DHT22;38518;53.164;5.430;2024-03-06T12:55:14;8.50;97.40
51619;DHT22;38518;53.164;5.430;2024-03-06T12:57:40;8.60;84.80
51619;DHT22;38518;53.164;5.430;2024-03-06T13:00:07;8.70;90.20
51619;DHT22;38518;53.164;5.430;2024-03-06T13:02:42;8.80;63.00
51619;DHT22;38518;53.164;5.430;2024-03-06T13:05:09;9.00;66.80
51619;DHT22;38518;53.164;5.430;2024-03-06T13:07:35;9.00;78.30
51619;DHT22;38518;53.164;5.430;2024-03-06T13:10:02;9.20;60.40
51619;DHT22;38518;53.164;5.430;2024-03-06T13:12:28;9.10;49.90
51619;DHT22;38518;53.164;5.430;2024-03-06T13:14:54;9.10;49.90
51619;DHT22;38518;53.164;5.430;2024-03-06T13:17:20;9.20;62.80
51619;DHT22;38518;53.164;5.430;2024-03-06T13:19:46;9.10;48.00
51619;DHT22;38518;53.164;5.430;2024-03-06T13:22:11;9.00;38.80
51619;DHT22;38518;53.164;5.430;2024-03-06T13:24:37;9.10;44.90
51619;DHT22;38518;53.164;5.430;2024-03-06T13:27:04;9.10;37.80
51619;DHT22;38518;53.164;5.430;2024-03-06T13:29:30;9.10;45.80
51619;DHT22;38518;53.164;5.430;2024-03-06T13:31:55;9.30;53.10
51619;DHT22;38518;53.164;5.430;2024-03-06T13:34:21;8.80;53.60
51619;DHT22;38518;53.164;5.430;2024-03-06T13:36:47;9.30;52.10
51619;DHT22;38518;53.164;5.430;2024-03-06T13:39:13;9.30;42.50
51619;DHT22;38518;53.164;5.430;2024-03-06T13:41:39;9.20;30.50
51619;DHT22;38518;53.164;5.430;2024-03-06T13:44:06;8.50;22.00
51619;DHT22;38518;53.164;5.430;2024-03-06T13:46:33;9.20;25.90
51619;DHT22;38518;53.164;5.430;2024-03-06T13:48:59;9.30;28.20
51619;DHT22;38518;53.164;5.430;2024-03-06T13:51:26;9.20;22.90
51619;DHT22;38518;53.164;5.430;2024-03-06T13:53:52;9.20;26.60
51619;DHT22;38518;53.164;5.430;2024-03-06T13:56:17;9.20;34.30
51619;DHT22;38518;53.164;5.430;2024-03-06T13:58:44;9.30;36.50
51619;DHT22;38518;53.164;5.430;2024-03-06T14:01:09;9.20;32.70
51619;DHT22;38518;53.164;5.430;2024-03-06T14:03:35;9.40;33.70
51619;DHT22;38518;53.164;5.430;2024-03-06T14:06:04;9.40;37.80
51619;DHT22;38518;53.164;5.430;2024-03-06T14:08:29;9.50;23.10
51619;DHT22;38518;53.164;5.430;2024-03-06T14:10:55;9.60;22.50
51619;DHT22;38518;53.164;5.430;2024-03-06T14:13:22;9.70;22.50
51619;DHT22;38518;53.164;5.430;2024-03-06T14:15:48;10.50;32.20
51619;DHT22;38518;53.164;5.430;2024-03-06T14:18:15;11.90;28.00
51619;DHT22;38518;53.164;5.430;2024-03-06T14:20:40;12.60;24.10
51619;DHT22;38518;53.164;5.430;2024-03-06T14:23:06;14.70;12.00
51619;DHT22;38518;53.164;5.430;2024-03-06T14:25:33;15.50;1.00
51619;DHT22;38518;53.164;5.430;2024-03-06T14:28:04;15.80;1.00
51619;DHT22;38518;53.164;5.430;2024-03-06T14:30:29;16.10;1.00
51619;DHT22;38518;53.164;5.430;2024-03-06T14:32:55;16.50;1.00
51619;DHT22;38518;53.164;5.430;2024-03-06T14:35:21;16.10;1.00
51619;DHT22;38518;53.164;5.430;2024-03-06T14:37:47;16.00;1.00
51619;DHT22;38518;53.164;5.430;2024-03-06T14:40:14;16.20;1.00
51619;DHT22;38518;53.164;5.430;2024-03-06T14:42:40;16.10;1.00
51619;DHT22;38518;53.164;5.430;2024-03-06T14:45:06;16.30;1.00
51619;DHT22;38518;53.164;5.430;2024-03-06T14:47:33;16.40;1.00
51619;DHT22;38518;53.164;5.430;2024-03-06T14:49:58;16.40;1.00
51619;DHT22;38518;53.164;5.430;2024-03-06T14:52:24;16.40;1.00
51619;DHT22;38518;53.164;5.430;2024-03-06T14:54:51;16.60;1.00
51619;DHT22;38518;53.164;5.430;2024-03-06T14:57:17;17.00;1.00
51619;DHT22;38518;53.164;5.430;2024-03-06T14:59:43;17.40;1.00
51619;DHT22;38518;53.164;5.430;2024-03-06T15:02:09;17.90;1.00
51619;DHT22;38518;53.164;5.430;2024-03-06T15:04:35;17.60;1.00
51619;DHT22;38518;53.164;5.430;2024-03-06T15:07:01;16.90;1.00
51619;DHT22;38518;53.164;5.430;2024-03-06T15:09:26;16.80;1.00
51619;DHT22;38518;53.164;5.430;2024-03-06T15:11:53;16.90;1.00
51619;DHT22;38518;53.164;5.430;2024-03-06T15:14:19;17.40;1.00
51619;DHT22;38518;53.164;5.430;2024-03-06T15:16:45;17.50;1.00
51619;DHT22;38518;53.164;5.430;2024-03-06T15:19:11;17.30;1.00
51619;DHT22;38518;53.164;5.430;2024-03-06T15:21:37;17.40;1.00
51619;DHT22;38518;53.164;5.430;2024-03-06T15:24:03;17.40;1.00
51619;DHT22;38518;53.164;5.430;2024-03-06T15:26:29;17.30;1.00
51619;DHT22;38518;53.164;5.430;2024-03-06T15:28:55;17.20;1.00
51619;DHT22;38518;53.164;5.430;2024-03-06T15:31:20;17.20;1.00
51619;DHT22;38518;53.164;5.430;2024-03-06T15:33:48;16.90;1.00
51619;DHT22;38518;53.164;5.430;2024-03-06T15:36:15;16.90;1.00
51619;DHT22;38518;53.164;5.430;2024-03-06T15:38:42;16.80;1.00
51619;DHT22;38518;53.164;5.430;2024-03-06T15:41:08;16.70;1.00
51619;DHT22;38518;53.164;5.430;2024-03-06T15:43:35;16.40;1.00
51619;DHT22;38518;53.164;5.430;2024-03-06T15:46:01;16.30;1.00
51619;DHT22;38518;53.164;5.430;2024-03-06T15:48:27;16.30;1.00
51619;DHT22;38518;53.164;5.430;2024-03-06T15:50:54;16.40;1.00
51619;DHT22;38518;53.164;5.430;2024-03-06T15:53:20;15.60;1.00
51619;DHT22;38518;53.164;5.430;2024-03-06T15:55:46;15.90;1.00
51619;DHT22;38518;53.164;5.430;2024-03-06T15:58:11;15.90;1.00